sensor_id;sensor_type;location;lat;lon;timestamp;temperature;humidity
11055;DHT22;5580;50.106;8.702;2023-08-08T00:01:05;17.20;99.90
11055;DHT22;5580;50.106;8.702;2023-08-08T00:03:30;17.20;99.90
11055;DHT22;5580;50.106;8.702;2023-08-08T00:05:56;17.20;99.90
11055;DHT22;5580;50.106;8.702;2023-08-08T00:08:21;17.20;99.90
11055;DHT22;5580;50.106;8.702;2023-08-08T00:10:47;17.20;99.90
11055;DHT22;5580;50.106;8.702;2023-08-08T00:13:12;17.20;99.90
11055;DHT22;5580;50.106;8.702;2023-08-08T00:15:38;17.20;99.90
11055;DHT22;5580;50.106;8.702;2023-08-08T00:18:04;17.10;99.90
11055;DHT22;5580;50.106;8.702;2023-08-08T00:20:30;17.10;99.90
11055;DHT22;5580;50.106;8.702;2023-08-08T00:22:55;17.10;99.90
11055;DHT22;5580;50.106;8.702;2023-08-08T00:25:21;17.00;99.90
11055;DHT22;5580;50.106;8.702;2023-08-08T00:27:47;17.10;99.90
11055;DHT22;5580;50.106;8.702;2023-08-08T00:30:12;17.00;99.90
11055;DHT22;5580;50.106;8.702;2023-08-08T00:32:39;17.00;99.90
11055;DHT22;5580;50.106;8.702;2023-08-08T00:35:04;17.00;99.90
11055;DHT22;5580;50.106;8.702;2023-08-08T00:37:30;17.00;99.90
11055;DHT22;5580;50.106;8.702;2023-08-08T00:39:56;16.90;99.90
11055;DHT22;5580;50.106;8.702;2023-08-08T00:42:21;17.00;99.90
11055;DHT22;5580;50.106;8.702;2023-08-08T00:44:47;17.00;99.90
11055;DHT22;5580;50.106;8.702;2023-08-08T00:47:12;17.00;99.90
11055;DHT22;5580;50.106;8.702;2023-08-08T00:49:38;16.90;99.90
11055;DHT22;5580;50.106;8.702;2023-08-08T00:52:06;16.90;99.90
11055;DHT22;5580;50.106;8.702;2023-08-08T00:54:32;16.90;99.90
11055;DHT22;5580;50.106;8.702;2023-08-08T00:56:57;16.90;99.90
11055;DHT22;5580;50.106;8.702;2023-08-08T00:59:23;16.90;99.90
11055;DHT22;5580;50.106;8.702;2023-08-08T01:01:49;16.90;99.90
11055;DHT22;5580;50.106;8.702;2023-08-08T01:04:16;16.90;99.90
11055;DHT22;5580;50.106;8.702;2023-08-08T01:06:55;16.90;99.90
11055;DHT22;5580;50.106;8.702;2023-08-08T01:12:08;16.80;99.90
11055;DHT22;5580;50.106;8.702;2023-08-08T01:14:37;16.70;99.90
11055;DHT22;5580;50.106;8.702;2023-08-08T01:17:04;16.70;99.90
11055;DHT22;5580;50.106;8.702;2023-08-08T01:19:31;16.70;99.90
11055;DHT22;5580;50.106;8.702;2023-08-08T01:22:09;16.70;99.90
11055;DHT22;5580;50.106;8.702;2023-08-08T01:24:35;16.60;99.90
11055;DHT22;5580;50.106;8.702;2023-08-08T01:27:03;16.60;99.90
11055;DHT22;5580;50.106;8.702;2023-08-08T01:29:29;16.60;99.90
11055;DHT22;5580;50.106;8.702;2023-08-08T01:31:55;16.60;99.90
11055;DHT22;5580;50.106;8.702;2023-08-08T01:34:21;16.60;99.90
11055;DHT22;5580;50.106;8.702;2023-08-08T01:36:57;16.60;99.90
11055;DHT22;5580;50.106;8.702;2023-08-08T01:39:30;16.60;99.90
11055;DHT22;5580;50.106;8.702;2023-08-08T01:41:56;16.60;99.90
11055;DHT22;5580;50.106;8.702;2023-08-08T01:44:22;16.60;99.90
11055;DHT22;5580;50.106;8.702;2023-08-08T01:46:49;16.60;99.90
11055;DHT22;5580;50.106;8.702;2023-08-08T01:49:15;16.60;99.90
11055;DHT22;5580;50.106;8.702;2023-08-08T01:51:41;16.60;99.90
11055;DHT22;5580;50.106;8.702;2023-08-08T01:54:06;16.60;99.90
11055;DHT22;5580;50.106;8.702;2023-08-08T01:56:32;16.50;99.90
11055;DHT22;5580;50.106;8.702;2023-08-08T01:58:58;16.60;99.90
11055;DHT22;5580;50.106;8.702;2023-08-08T02:01:23;16.50;99.90
11055;DHT22;5580;50.106;8.702;2023-08-08T02:03:49;16.50;99.90
11055;DHT22;5580;50.106;8.702;2023-08-08T02:06:15;16.50;99.90
11055;DHT22;5580;50.106;8.702;2023-08-08T02:08:41;16.50;99.90
11055;DHT22;5580;50.106;8.702;2023-08-08T02:11:06;16.40;99.90
11055;DHT22;5580;50.106;8.702;2023-08-08T02:13:32;16.40;99.90
11055;DHT22;5580;50.106;8.702;2023-08-08T02:15:58;16.40;99.90
11055;DHT22;5580;50.106;8.702;2023-08-08T02:18:23;16.40;99.90
11055;DHT22;5580;50.106;8.702;2023-08-08T02:20:49;16.40;99.90
11055;DHT22;5580;50.106;8.702;2023-08-08T02:23:15;16.40;99.90
11055;DHT22;5580;50.106;8.702;2023-08-08T02:25:41;16.30;99.90
11055;DHT22;5580;50.106;8.702;2023-08-08T02:28:06;16.30;99.90
11055;DHT22;5580;50.106;8.702;2023-08-08T02:30:32;16.30;99.90
11055;DHT22;5580;50.106;8.702;2023-08-08T02:32:57;16.30;99.90
11055;DHT22;5580;50.106;8.702;2023-08-08T02:35:23;16.20;99.90
11055;DHT22;5580;50.106;8.702;2023-08-08T02:37:49;16.30;99.90
11055;DHT22;5580;50.106;8.702;2023-08-08T02:40:15;16.20;99.90
11055;DHT22;5580;50.106;8.702;2023-08-08T02:42:40;16.20;99.90
11055;DHT22;5580;50.106;8.702;2023-08-08T02:45:06;16.20;99.90
11055;DHT22;5580;50.106;8.702;2023-08-08T02:47:32;16.20;99.90
11055;DHT22;5580;50.106;8.702;2023-08-08T02:49:58;16.10;99.90
11055;DHT22;5580;50.106;8.702;2023-08-08T02:52:23;16.10;99.90
11055;DHT22;5580;50.106;8.702;2023-08-08T02:54:49;16.10;99.90
11055;DHT22;5580;50.106;8.702;2023-08-08T02:57:16;16.00;99.90
11055;DHT22;5580;50.106;8.702;2023-08-08T02:59:41;16.00;99.90
11055;DHT22;5580;50.106;8.702;2023-08-08T03:02:07;16.00;99.90
11055;DHT22;5580;50.106;8.702;2023-08-08T03:04:33;16.00;99.90
11055;DHT22;5580;50.106;8.702;2023-08-08T03:06:59;16.00;99.90
11055;DHT22;5580;50.106;8.702;2023-08-08T03:09:27;15.90;99.90
11055;DHT22;5580;50.106;8.702;2023-08-08T03:11:52;15.90;99.90
11055;DHT22;5580;50.106;8.702;2023-08-08T03:14:18;15.90;99.90
11055;DHT22;5580;50.106;8.702;2023-08-08T03:16:45;16.00;99.90
11055;DHT22;5580;50.106;8.702;2023-08-08T03:19:11;15.90;99.90
11055;DHT22;5580;50.106;8.702;2023-08-08T03:21:36;15.90;99.90
11055;DHT22;5580;50.106;8.702;2023-08-08T03:24:02;15.90;99.90
11055;DHT22;5580;50.106;8.702;2023-08-08T03:26:28;15.80;99.90
11055;DHT22;5580;50.106;8.702;2023-08-08T03:28:54;15.90;99.90
11055;DHT22;5580;50.106;8.702;2023-08-08T03:31:20;15.90;99.90
11055;DHT22;5580;50.106;8.702;2023-08-08T03:33:46;15.90;99.90
11055;DHT22;5580;50.106;8.702;2023-08-08T03:36:13;15.80;99.90
11055;DHT22;5580;50.106;8.702;2023-08-08T03:38:38;15.80;99.90
11055;DHT22;5580;50.106;8.702;2023-08-08T03:41:05;15.90;99.90
11055;DHT22;5580;50.106;8.702;2023-08-08T03:43:30;15.80;99.90
11055;DHT22;5580;50.106;8.702;2023-08-08T03:45:56;15.80;99.90
11055;DHT22;5580;50.106;8.702;2023-08-08T03:48:21;15.80;99.90
11055;DHT22;5580;50.106;8.702;2023-08-08T03:50:47;15.80;99.90
11055;DHT22;5580;50.106;8.702;2023-08-08T03:53:13;15.70;99.90
11055;DHT22;5580;50.106;8.702;2023-08-08T03:55:38;15.70;99.90
11055;DHT22;5580;50.106;8.702;2023-08-08T03:58:04;15.70;99.90
11055;DHT22;5580;50.106;8.702;2023-08-08T04:00:31;15.70;99.90
11055;DHT22;5580;50.106;8.702;2023-08-08T04:02:56;15.70;99.90
11055;DHT22;5580;50.106;8.702;2023-08-08T04:05:22;15.70;99.90
11055;DHT22;5580;50.106;8.702;2023-08-08T04:07:47;15.70;99.90
11055;DHT22;5580;50.106;8.702;2023-08-08T04:10:13;15.70;99.90
11055;DHT22;5580;50.106;8.702;2023-08-08T04:12:38;15.70;99.90
11055;DHT22;5580;50.106;8.702;2023-08-08T04:15:04;15.60;99.90
11055;DHT22;5580;50.106;8.702;2023-08-08T04:17:30;15.60;99.90
11055;DHT22;5580;50.106;8.702;2023-08-08T04:19:55;15.60;99.90
11055;DHT22;5580;50.106;8.702;2023-08-08T04:22:21;15.60;99.90
11055;DHT22;5580;50.106;8.702;2023-08-08T04:24:47;15.60;99.90
11055;DHT22;5580;50.106;8.702;2023-08-08T04:27:12;15.60;99.90
11055;DHT22;5580;50.106;8.702;2023-08-08T04:29:38;15.60;99.90
11055;DHT22;5580;50.106;8.702;2023-08-08T04:32:04;15.50;99.90
11055;DHT22;5580;50.106;8.702;2023-08-08T04:34:29;15.50;99.90
11055;DHT22;5580;50.106;8.702;2023-08-08T04:36:55;15.50;99.90
11055;DHT22;5580;50.106;8.702;2023-08-08T04:39:21;15.50;99.90
11055;DHT22;5580;50.106;8.702;2023-08-08T04:41:46;15.50;99.90
11055;DHT22;5580;50.106;8.702;2023-08-08T04:44:12;15.50;99.90
11055;DHT22;5580;50.106;8.702;2023-08-08T04:46:37;15.50;99.90
11055;DHT22;5580;50.106;8.702;2023-08-08T04:49:03;15.40;99.90
11055;DHT22;5580;50.106;8.702;2023-08-08T04:51:28;15.40;99.90
11055;DHT22;5580;50.106;8.702;2023-08-08T04:53:54;15.40;99.90
11055;DHT22;5580;50.106;8.702;2023-08-08T04:56:19;15.40;99.90
11055;DHT22;5580;50.106;8.702;2023-08-08T04:58:45;15.50;99.90
11055;DHT22;5580;50.106;8.702;2023-08-08T05:01:11;15.60;99.90
11055;DHT22;5580;50.106;8.702;2023-08-08T05:03:39;15.70;99.90
11055;DHT22;5580;50.106;8.702;2023-08-08T05:06:05;15.80;99.90
11055;DHT22;5580;50.106;8.702;2023-08-08T05:08:31;16.00;99.90
11055;DHT22;5580;50.106;8.702;2023-08-08T05:10:56;16.10;99.90
11055;DHT22;5580;50.106;8.702;2023-08-08T05:13:22;16.10;99.90
11055;DHT22;5580;50.106;8.702;2023-08-08T05:15:48;16.10;99.90
11055;DHT22;5580;50.106;8.702;2023-08-08T05:18:13;16.00;99.90
11055;DHT22;5580;50.106;8.702;2023-08-08T05:20:39;16.00;99.90
11055;DHT22;5580;50.106;8.702;2023-08-08T05:23:04;16.00;99.90
11055;DHT22;5580;50.106;8.702;2023-08-08T05:25:30;16.10;99.90
11055;DHT22;5580;50.106;8.702;2023-08-08T05:27:55;16.10;99.90
11055;DHT22;5580;50.106;8.702;2023-08-08T05:30:21;16.20;99.90
11055;DHT22;5580;50.106;8.702;2023-08-08T05:32:47;16.30;99.90
11055;DHT22;5580;50.106;8.702;2023-08-08T05:35:13;16.40;99.90
11055;DHT22;5580;50.106;8.702;2023-08-08T05:37:39;16.40;99.90
11055;DHT22;5580;50.106;8.702;2023-08-08T05:40:05;16.40;99.90
11055;DHT22;5580;50.106;8.702;2023-08-08T05:42:32;16.50;99.90
11055;DHT22;5580;50.106;8.702;2023-08-08T05:44:57;16.60;99.90
11055;DHT22;5580;50.106;8.702;2023-08-08T05:47:23;16.70;99.90
11055;DHT22;5580;50.106;8.702;2023-08-08T05:49:49;16.70;99.90
11055;DHT22;5580;50.106;8.702;2023-08-08T05:52:15;16.80;99.90
11055;DHT22;5580;50.106;8.702;2023-08-08T05:54:40;17.00;99.90
11055;DHT22;5580;50.106;8.702;2023-08-08T05:57:06;17.00;99.90
11055;DHT22;5580;50.106;8.702;2023-08-08T05:59:32;17.10;99.90
11055;DHT22;5580;50.106;8.702;2023-08-08T06:01:58;17.10;99.90
11055;DHT22;5580;50.106;8.702;2023-08-08T06:04:24;17.10;99.90
11055;DHT22;5580;50.106;8.702;2023-08-08T06:06:50;17.10;99.90
11055;DHT22;5580;50.106;8.702;2023-08-08T06:09:16;17.10;99.90
11055;DHT22;5580;50.106;8.702;2023-08-08T06:11:42;17.20;99.90
11055;DHT22;5580;50.106;8.702;2023-08-08T06:14:08;17.20;99.90
11055;DHT22;5580;50.106;8.702;2023-08-08T06:16:34;17.10;99.90
11055;DHT22;5580;50.106;8.702;2023-08-08T06:19:00;17.10;99.90
11055;DHT22;5580;50.106;8.702;2023-08-08T06:21:26;17.10;99.90
11055;DHT22;5580;50.106;8.702;2023-08-08T06:23:52;17.10;99.90
11055;DHT22;5580;50.106;8.702;2023-08-08T06:26:20;17.10;99.90
11055;DHT22;5580;50.106;8.702;2023-08-08T06:28:47;17.10;99.90
11055;DHT22;5580;50.106;8.702;2023-08-08T06:31:13;17.10;99.90
11055;DHT22;5580;50.106;8.702;2023-08-08T06:33:39;17.10;99.90
11055;DHT22;5580;50.106;8.702;2023-08-08T06:36:05;17.10;99.90
11055;DHT22;5580;50.106;8.702;2023-08-08T06:38:31;17.10;99.90
11055;DHT22;5580;50.106;8.702;2023-08-08T06:41:00;17.10;99.90
11055;DHT22;5580;50.106;8.702;2023-08-08T06:43:26;17.10;99.90
11055;DHT22;5580;50.106;8.702;2023-08-08T06:45:52;17.10;99.90
11055;DHT22;5580;50.106;8.702;2023-08-08T06:48:18;17.20;99.90
11055;DHT22;5580;50.106;8.702;2023-08-08T06:50:43;17.10;99.90
11055;DHT22;5580;50.106;8.702;2023-08-08T06:53:09;17.20;99.90
11055;DHT22;5580;50.106;8.702;2023-08-08T06:55:35;17.10;99.90
11055;DHT22;5580;50.106;8.702;2023-08-08T06:58:00;17.00;99.90
11055;DHT22;5580;50.106;8.702;2023-08-08T07:00:26;17.00;99.90
11055;DHT22;5580;50.106;8.702;2023-08-08T07:02:53;17.00;99.90
11055;DHT22;5580;50.106;8.702;2023-08-08T07:05:19;17.10;99.90
11055;DHT22;5580;50.106;8.702;2023-08-08T07:07:45;17.10;99.90
11055;DHT22;5580;50.106;8.702;2023-08-08T07:10:11;17.10;99.90
11055;DHT22;5580;50.106;8.702;2023-08-08T07:12:38;17.10;99.90
11055;DHT22;5580;50.106;8.702;2023-08-08T07:15:06;17.20;99.90
11055;DHT22;5580;50.106;8.702;2023-08-08T07:17:32;17.30;99.90
11055;DHT22;5580;50.106;8.702;2023-08-08T07:19:58;17.20;99.90
11055;DHT22;5580;50.106;8.702;2023-08-08T07:22:24;17.30;99.90
11055;DHT22;5580;50.106;8.702;2023-08-08T07:24:50;17.30;99.90
11055;DHT22;5580;50.106;8.702;2023-08-08T07:27:16;17.30;99.90
11055;DHT22;5580;50.106;8.702;2023-08-08T07:29:41;17.30;99.90
11055;DHT22;5580;50.106;8.702;2023-08-08T07:32:07;17.30;99.90
11055;DHT22;5580;50.106;8.702;2023-08-08T07:34:33;17.30;99.90
11055;DHT22;5580;50.106;8.702;2023-08-08T07:36:59;17.30;99.90
11055;DHT22;5580;50.106;8.702;2023-08-08T07:39:24;17.40;99.90
11055;DHT22;5580;50.106;8.702;2023-08-08T07:41:51;17.50;99.90
11055;DHT22;5580;50.106;8.702;2023-08-08T07:44:17;17.50;99.90
11055;DHT22;5580;50.106;8.702;2023-08-08T07:46:42;17.60;99.90
11055;DHT22;5580;50.106;8.702;2023-08-08T07:49:08;17.70;99.90
11055;DHT22;5580;50.106;8.702;2023-08-08T07:51:34;17.80;99.90
11055;DHT22;5580;50.106;8.702;2023-08-08T07:54:00;17.90;99.90
11055;DHT22;5580;50.106;8.702;2023-08-08T07:56:26;18.00;99.90
11055;DHT22;5580;50.106;8.702;2023-08-08T07:58:51;18.10;99.90
11055;DHT22;5580;50.106;8.702;2023-08-08T08:01:17;18.10;99.90
11055;DHT22;5580;50.106;8.702;2023-08-08T08:03:44;18.20;99.90
11055;DHT22;5580;50.106;8.702;2023-08-08T08:06:10;18.30;99.90
11055;DHT22;5580;50.106;8.702;2023-08-08T08:08:35;18.30;99.90
11055;DHT22;5580;50.106;8.702;2023-08-08T08:11:04;18.30;99.90
11055;DHT22;5580;50.106;8.702;2023-08-08T08:13:29;18.30;99.90
11055;DHT22;5580;50.106;8.702;2023-08-08T08:15:55;18.30;99.90
11055;DHT22;5580;50.106;8.702;2023-08-08T08:18:21;18.40;99.90
11055;DHT22;5580;50.106;8.702;2023-08-08T08:20:47;18.50;99.90
11055;DHT22;5580;50.106;8.702;2023-08-08T08:23:13;18.50;99.90
11055;DHT22;5580;50.106;8.702;2023-08-08T08:25:38;18.50;99.90
11055;DHT22;5580;50.106;8.702;2023-08-08T08:28:04;18.50;99.90
11055;DHT22;5580;50.106;8.702;2023-08-08T08:30:30;18.50;99.90
11055;DHT22;5580;50.106;8.702;2023-08-08T08:32:55;18.60;99.90
11055;DHT22;5580;50.106;8.702;2023-08-08T08:35:22;18.60;99.90
11055;DHT22;5580;50.106;8.702;2023-08-08T08:37:48;18.60;99.90
11055;DHT22;5580;50.106;8.702;2023-08-08T08:40:14;18.70;99.90
11055;DHT22;5580;50.106;8.702;2023-08-08T08:42:40;18.60;99.90
11055;DHT22;5580;50.106;8.702;2023-08-08T08:45:09;18.70;99.90
11055;DHT22;5580;50.106;8.702;2023-08-08T08:47:36;18.70;99.90
11055;DHT22;5580;50.106;8.702;2023-08-08T08:50:03;18.70;99.90
11055;DHT22;5580;50.106;8.702;2023-08-08T08:52:30;18.70;99.90
11055;DHT22;5580;50.106;8.702;2023-08-08T08:54:55;18.70;99.90
11055;DHT22;5580;50.106;8.702;2023-08-08T08:57:22;18.70;99.90
11055;DHT22;5580;50.106;8.702;2023-08-08T08:59:52;18.70;99.90
11055;DHT22;5580;50.106;8.702;2023-08-08T09:02:18;18.80;99.90
11055;DHT22;5580;50.106;8.702;2023-08-08T09:04:44;18.80;99.90
11055;DHT22;5580;50.106;8.702;2023-08-08T09:07:12;18.90;99.90
11055;DHT22;5580;50.106;8.702;2023-08-08T09:09:38;18.90;99.90
11055;DHT22;5580;50.106;8.702;2023-08-08T09:12:04;18.90;99.90
11055;DHT22;5580;50.106;8.702;2023-08-08T09:14:31;18.90;99.90
11055;DHT22;5580;50.106;8.702;2023-08-08T09:16:57;18.90;99.90
11055;DHT22;5580;50.106;8.702;2023-08-08T09:19:23;18.90;99.90
11055;DHT22;5580;50.106;8.702;2023-08-08T09:21:51;18.90;99.90
11055;DHT22;5580;50.106;8.702;2023-08-08T09:24:17;19.00;99.90
11055;DHT22;5580;50.106;8.702;2023-08-08T09:26:44;19.00;99.90
11055;DHT22;5580;50.106;8.702;2023-08-08T09:29:14;19.10;99.90
11055;DHT22;5580;50.106;8.702;2023-08-08T09:31:40;19.10;99.90
11055;DHT22;5580;50.106;8.702;2023-08-08T09:34:06;19.20;99.90
11055;DHT22;5580;50.106;8.702;2023-08-08T09:36:32;19.20;99.90
11055;DHT22;5580;50.106;8.702;2023-08-08T09:38:58;19.30;99.90
11055;DHT22;5580;50.106;8.702;2023-08-08T09:41:24;19.30;99.90
11055;DHT22;5580;50.106;8.702;2023-08-08T09:43:52;19.30;99.90
11055;DHT22;5580;50.106;8.702;2023-08-08T09:46:21;19.40;99.90
11055;DHT22;5580;50.106;8.702;2023-08-08T09:48:47;19.40;99.90
11055;DHT22;5580;50.106;8.702;2023-08-08T09:51:14;19.40;99.90
11055;DHT22;5580;50.106;8.702;2023-08-08T09:53:40;19.50;99.90
11055;DHT22;5580;50.106;8.702;2023-08-08T09:56:07;19.50;99.90
11055;DHT22;5580;50.106;8.702;2023-08-08T09:58:33;19.50;99.90
11055;DHT22;5580;50.106;8.702;2023-08-08T10:00:59;19.60;99.90
11055;DHT22;5580;50.106;8.702;2023-08-08T10:03:25;19.50;99.90
11055;DHT22;5580;50.106;8.702;2023-08-08T10:05:54;19.60;99.90
11055;DHT22;5580;50.106;8.702;2023-08-08T10:08:20;19.60;99.90
11055;DHT22;5580;50.106;8.702;2023-08-08T10:10:48;19.60;99.90
11055;DHT22;5580;50.106;8.702;2023-08-08T10:15:47;19.70;99.90
11055;DHT22;5580;50.106;8.702;2023-08-08T10:18:14;19.70;99.90
11055;DHT22;5580;50.106;8.702;2023-08-08T10:20:43;19.80;99.90
11055;DHT22;5580;50.106;8.702;2023-08-08T10:23:10;19.80;99.90
11055;DHT22;5580;50.106;8.702;2023-08-08T10:25:36;19.90;99.90
11055;DHT22;5580;50.106;8.702;2023-08-08T10:28:08;19.90;99.90
11055;DHT22;5580;50.106;8.702;2023-08-08T10:30:45;19.90;99.90
11055;DHT22;5580;50.106;8.702;2023-08-08T10:36:00;20.00;99.90
11055;DHT22;5580;50.106;8.702;2023-08-08T10:38:27;20.00;99.90
11055;DHT22;5580;50.106;8.702;2023-08-08T10:41:03;20.00;99.90
11055;DHT22;5580;50.106;8.702;2023-08-08T10:43:29;20.00;99.90
11055;DHT22;5580;50.106;8.702;2023-08-08T10:46:02;20.10;99.90
11055;DHT22;5580;50.106;8.702;2023-08-08T10:48:28;20.10;99.90
11055;DHT22;5580;50.106;8.702;2023-08-08T10:51:00;20.10;99.90
11055;DHT22;5580;50.106;8.702;2023-08-08T10:53:28;20.10;99.90
11055;DHT22;5580;50.106;8.702;2023-08-08T10:55:58;20.10;99.90
11055;DHT22;5580;50.106;8.702;2023-08-08T10:58:35;20.10;99.90
11055;DHT22;5580;50.106;8.702;2023-08-08T11:01:02;20.10;99.90
11055;DHT22;5580;50.106;8.702;2023-08-08T11:03:29;20.10;99.90
11055;DHT22;5580;50.106;8.702;2023-08-08T11:05:55;20.10;99.90
11055;DHT22;5580;50.106;8.702;2023-08-08T11:08:22;20.10;99.90
11055;DHT22;5580;50.106;8.702;2023-08-08T11:10:51;20.10;99.90
11055;DHT22;5580;50.106;8.702;2023-08-08T11:13:17;20.10;99.90
11055;DHT22;5580;50.106;8.702;2023-08-08T11:15:43;20.20;99.90
11055;DHT22;5580;50.106;8.702;2023-08-08T11:18:09;20.20;99.90
11055;DHT22;5580;50.106;8.702;2023-08-08T11:20:36;20.20;99.90
11055;DHT22;5580;50.106;8.702;2023-08-08T11:23:02;20.30;99.90
11055;DHT22;5580;50.106;8.702;2023-08-08T11:25:30;20.30;99.90
11055;DHT22;5580;50.106;8.702;2023-08-08T11:27:57;20.30;99.90
11055;DHT22;5580;50.106;8.702;2023-08-08T11:30:24;20.30;99.90
11055;DHT22;5580;50.106;8.702;2023-08-08T11:32:53;20.40;99.90
11055;DHT22;5580;50.106;8.702;2023-08-08T11:35:22;20.30;99.90
11055;DHT22;5580;50.106;8.702;2023-08-08T11:37:48;20.40;99.90
11055;DHT22;5580;50.106;8.702;2023-08-08T11:40:15;20.40;99.90
11055;DHT22;5580;50.106;8.702;2023-08-08T11:42:41;20.40;99.90
11055;DHT22;5580;50.106;8.702;2023-08-08T11:45:09;20.50;99.90
11055;DHT22;5580;50.106;8.702;2023-08-08T11:47:35;20.50;99.90
11055;DHT22;5580;50.106;8.702;2023-08-08T11:50:06;20.50;99.90
11055;DHT22;5580;50.106;8.702;2023-08-08T11:52:33;20.50;99.90
11055;DHT22;5580;50.106;8.702;2023-08-08T11:54:59;20.60;99.90
11055;DHT22;5580;50.106;8.702;2023-08-08T11:57:28;20.50;99.90
11055;DHT22;5580;50.106;8.702;2023-08-08T11:59:54;20.50;99.90
11055;DHT22;5580;50.106;8.702;2023-08-08T12:02:19;20.50;99.90
11055;DHT22;5580;50.106;8.702;2023-08-08T12:04:46;20.50;99.90
11055;DHT22;5580;50.106;8.702;2023-08-08T12:07:11;20.50;99.90
11055;DHT22;5580;50.106;8.702;2023-08-08T12:09:37;20.50;99.90
11055;DHT22;5580;50.106;8.702;2023-08-08T12:12:04;20.50;99.90
11055;DHT22;5580;50.106;8.702;2023-08-08T12:14:35;20.50;99.90
11055;DHT22;5580;50.106;8.702;2023-08-08T12:17:01;20.50;99.90
11055;DHT22;5580;50.106;8.702;2023-08-08T12:19:27;20.60;99.90
11055;DHT22;5580;50.106;8.702;2023-08-08T12:21:54;20.70;99.90
11055;DHT22;5580;50.106;8.702;2023-08-08T12:24:19;20.70;99.90
11055;DHT22;5580;50.106;8.702;2023-08-08T12:26:45;20.70;99.90
11055;DHT22;5580;50.106;8.702;2023-08-08T12:29:11;20.70;99.90
11055;DHT22;5580;50.106;8.702;2023-08-08T12:31:37;20.80;99.90
11055;DHT22;5580;50.106;8.702;2023-08-08T12:34:03;20.70;99.90
11055;DHT22;5580;50.106;8.702;2023-08-08T12:36:30;20.70;99.90
11055;DHT22;5580;50.106;8.702;2023-08-08T12:38:55;20.80;99.90
11055;DHT22;5580;50.106;8.702;2023-08-08T12:41:22;20.70;99.90
11055;DHT22;5580;50.106;8.702;2023-08-08T12:43:48;20.70;99.90
11055;DHT22;5580;50.106;8.702;2023-08-08T12:46:15;20.70;99.90
11055;DHT22;5580;50.106;8.702;2023-08-08T12:48:40;20.70;99.90
11055;DHT22;5580;50.106;8.702;2023-08-08T12:51:06;20.70;99.90
11055;DHT22;5580;50.106;8.702;2023-08-08T12:53:34;20.60;99.90
11055;DHT22;5580;50.106;8.702;2023-08-08T12:56:00;20.60;99.90
11055;DHT22;5580;50.106;8.702;2023-08-08T12:58:25;20.70;99.90
11055;DHT22;5580;50.106;8.702;2023-08-08T13:00:51;20.70;99.90
11055;DHT22;5580;50.106;8.702;2023-08-08T13:03:17;20.70;99.90
11055;DHT22;5580;50.106;8.702;2023-08-08T13:05:42;20.70;99.90
11055;DHT22;5580;50.106;8.702;2023-08-08T13:08:08;20.70;99.90
11055;DHT22;5580;50.106;8.702;2023-08-08T13:10:35;20.80;99.90
11055;DHT22;5580;50.106;8.702;2023-08-08T13:13:00;20.70;99.90
11055;DHT22;5580;50.106;8.702;2023-08-08T13:15:26;20.70;99.90
11055;DHT22;5580;50.106;8.702;2023-08-08T13:17:52;20.80;99.90
11055;DHT22;5580;50.106;8.702;2023-08-08T13:20:17;20.80;99.90
11055;DHT22;5580;50.106;8.702;2023-08-08T13:22:43;20.70;99.90
11055;DHT22;5580;50.106;8.702;2023-08-08T13:25:09;20.70;99.90
11055;DHT22;5580;50.106;8.702;2023-08-08T13:27:35;20.70;99.90
11055;DHT22;5580;50.106;8.702;2023-08-08T13:30:02;20.80;99.90
11055;DHT22;5580;50.106;8.702;2023-08-08T13:32:28;20.80;99.90
11055;DHT22;5580;50.106;8.702;2023-08-08T13:34:53;20.80;99.90
11055;DHT22;5580;50.106;8.702;2023-08-08T13:37:19;20.70;99.90
11055;DHT22;5580;50.106;8.702;2023-08-08T13:39:45;20.70;99.90
11055;DHT22;5580;50.106;8.702;2023-08-08T13:42:10;20.70;99.90
11055;DHT22;5580;50.106;8.702;2023-08-08T13:44:36;20.80;99.90
11055;DHT22;5580;50.106;8.702;2023-08-08T13:47:02;20.70;99.90
11055;DHT22;5580;50.106;8.702;2023-08-08T13:49:27;20.80;99.90
11055;DHT22;5580;50.106;8.702;2023-08-08T13:51:53;20.70;99.90
11055;DHT22;5580;50.106;8.702;2023-08-08T13:54:19;20.70;99.90
11055;DHT22;5580;50.106;8.702;2023-08-08T13:56:45;20.70;99.90
11055;DHT22;5580;50.106;8.702;2023-08-08T13:59:11;20.70;99.90
11055;DHT22;5580;50.106;8.702;2023-08-08T14:01:37;20.70;99.90
11055;DHT22;5580;50.106;8.702;2023-08-08T14:04:03;20.70;99.90
11055;DHT22;5580;50.106;8.702;2023-08-08T14:06:28;20.70;99.90
11055;DHT22;5580;50.106;8.702;2023-08-08T14:08:54;20.80;99.90
11055;DHT22;5580;50.106;8.702;2023-08-08T14:11:20;20.70;99.90
11055;DHT22;5580;50.106;8.702;2023-08-08T14:13:46;20.80;99.90
11055;DHT22;5580;50.106;8.702;2023-08-08T14:16:11;20.80;99.90
11055;DHT22;5580;50.106;8.702;2023-08-08T14:18:37;20.70;99.90
11055;DHT22;5580;50.106;8.702;2023-08-08T14:21:03;20.80;99.90
11055;DHT22;5580;50.106;8.702;2023-08-08T14:23:30;20.70;99.90
11055;DHT22;5580;50.106;8.702;2023-08-08T14:25:55;20.70;99.90
11055;DHT22;5580;50.106;8.702;2023-08-08T14:28:21;20.70;99.90
11055;DHT22;5580;50.106;8.702;2023-08-08T14:30:47;20.70;99.90
11055;DHT22;5580;50.106;8.702;2023-08-08T14:33:16;20.80;99.90
11055;DHT22;5580;50.106;8.702;2023-08-08T14:35:42;20.70;99.90
11055;DHT22;5580;50.106;8.702;2023-08-08T14:38:08;20.70;99.90
11055;DHT22;5580;50.106;8.702;2023-08-08T14:40:34;20.70;99.90
11055;DHT22;5580;50.106;8.702;2023-08-08T14:43:02;20.70;99.90
11055;DHT22;5580;50.106;8.702;2023-08-08T14:45:28;20.80;99.90
11055;DHT22;5580;50.106;8.702;2023-08-08T14:47:55;20.80;99.90
11055;DHT22;5580;50.106;8.702;2023-08-08T14:50:20;20.80;99.90
11055;DHT22;5580;50.106;8.702;2023-08-08T14:52:46;20.80;99.90
11055;DHT22;5580;50.106;8.702;2023-08-08T14:55:11;20.80;99.90
11055;DHT22;5580;50.106;8.702;2023-08-08T14:57:37;20.80;99.90
11055;DHT22;5580;50.106;8.702;2023-08-08T15:00:03;20.80;99.90
11055;DHT22;5580;50.106;8.702;2023-08-08T15:02:29;20.80;99.90
11055;DHT22;5580;50.106;8.702;2023-08-08T15:04:55;20.70;99.90
11055;DHT22;5580;50.106;8.702;2023-08-08T15:07:20;20.70;99.90
11055;DHT22;5580;50.106;8.702;2023-08-08T15:09:46;20.70;99.90
11055;DHT22;5580;50.106;8.702;2023-08-08T15:12:15;20.70;99.90
11055;DHT22;5580;50.106;8.702;2023-08-08T15:14:41;20.70;99.90
11055;DHT22;5580;50.106;8.702;2023-08-08T15:17:07;20.70;99.90
11055;DHT22;5580;50.106;8.702;2023-08-08T15:19:32;20.60;99.90
11055;DHT22;5580;50.106;8.702;2023-08-08T15:21:58;20.60;99.90
11055;DHT22;5580;50.106;8.702;2023-08-08T15:24:23;20.60;99.90
11055;DHT22;5580;50.106;8.702;2023-08-08T15:26:49;20.60;99.90
11055;DHT22;5580;50.106;8.702;2023-08-08T15:29:14;20.60;99.90
11055;DHT22;5580;50.106;8.702;2023-08-08T15:31:40;20.60;99.90
11055;DHT22;5580;50.106;8.702;2023-08-08T15:34:06;20.60;99.90
11055;DHT22;5580;50.106;8.702;2023-08-08T15:36:31;20.60;99.90
11055;DHT22;5580;50.106;8.702;2023-08-08T15:38:57;20.60;99.90
11055;DHT22;5580;50.106;8.702;2023-08-08T15:41:22;20.60;99.90
11055;DHT22;5580;50.106;8.702;2023-08-08T15:43:48;20.60;99.90
11055;DHT22;5580;50.106;8.702;2023-08-08T15:46:14;20.60;99.90